sensor_id;sensor_type;location;lat;lon;timestamp;pressure;altitude;pressure_sealevel;temperature;humidity
23733;BME280;12047;53.450;-2.286;2022-12-18T00:04:45;101642.59;;;9.07;100.00
23733;BME280;12047;53.450;-2.286;2022-12-18T00:09:46;101655.63;;;8.31;100.00
23733;BME280;12047;53.450;-2.286;2022-12-18T00:14:47;101668.44;;;8.76;100.00
23733;BME280;12047;53.450;-2.286;2022-12-18T00:19:47;101664.75;;;8.79;100.00
23733;BME280;12047;53.450;-2.286;2022-12-18T00:24:48;101659.53;;;8.52;100.00
23733;BME280;12047;53.450;-2.286;2022-12-18T00:29:48;101659.03;;;8.18;100.00
23733;BME280;12047;53.450;-2.286;2022-12-18T00:34:49;101659.91;;;8.33;100.00
23733;BME280;12047;53.450;-2.286;2022-12-18T00:39:49;101660.22;;;8.81;100.00
23733;BME280;12047;53.450;-2.286;2022-12-18T00:44:50;101666.97;;;8.33;100.00
23733;BME280;12047;53.450;-2.286;2022-12-18T00:49:51;101660.75;;;8.99;100.00
23733;BME280;12047;53.450;-2.286;2022-12-18T00:54:51;101660.28;;;7.72;100.00
23733;BME280;12047;53.450;-2.286;2022-12-18T00:59:52;101662.00;;;8.14;100.00
23733;BME280;12047;53.450;-2.286;2022-12-18T01:04:52;101663.00;;;8.40;100.00
23733;BME280;12047;53.450;-2.286;2022-12-18T01:09:53;101667.03;;;8.31;100.00
23733;BME280;12047;53.450;-2.286;2022-12-18T01:14:54;101653.78;;;7.77;100.00
23733;BME280;12047;53.450;-2.286;2022-12-18T01:19:54;101655.34;;;7.94;100.00
23733;BME280;12047;53.450;-2.286;2022-12-18T01:24:55;101643.28;;;8.58;100.00
23733;BME280;12047;53.450;-2.286;2022-12-18T01:29:56;101647.00;;;7.73;100.00
23733;BME280;12047;53.450;-2.286;2022-12-18T01:34:56;101646.50;;;7.40;100.00
23733;BME280;12047;53.450;-2.286;2022-12-18T01:39:57;101647.44;;;7.94;100.00
23733;BME280;12047;53.450;-2.286;2022-12-18T01:50:19;101653.03;;;7.75;100.00
23733;BME280;12047;53.450;-2.286;2022-12-18T01:55:23;101657.78;;;8.11;100.00
23733;BME280;12047;53.450;-2.286;2022-12-18T02:00:26;101656.00;;;7.57;100.00
23733;BME280;12047;53.450;-2.286;2022-12-18T02:21:57;101662.22;;;7.41;100.00
23733;BME280;12047;53.450;-2.286;2022-12-18T02:27:08;101672.19;;;7.22;100.00
23733;BME280;12047;53.450;-2.286;2022-12-18T02:32:14;101681.22;;;7.04;100.00
23733;BME280;12047;53.450;-2.286;2022-12-18T02:37:18;101677.72;;;6.59;100.00
23733;BME280;12047;53.450;-2.286;2022-12-18T02:42:19;101669.41;;;6.95;100.00
23733;BME280;12047;53.450;-2.286;2022-12-18T02:47:22;101663.78;;;6.57;100.00
23733;BME280;12047;53.450;-2.286;2022-12-18T02:57:44;101670.41;;;6.48;100.00
23733;BME280;12047;53.450;-2.286;2022-12-18T03:08:18;101659.38;;;6.58;100.00
23733;BME280;12047;53.450;-2.286;2022-12-18T03:14:01;101640.13;;;6.41;100.00
23733;BME280;12047;53.450;-2.286;2022-12-18T03:19:03;101636.72;;;6.69;100.00
23733;BME280;12047;53.450;-2.286;2022-12-18T03:24:05;101630.22;;;6.61;100.00
23733;BME280;12047;53.450;-2.286;2022-12-18T03:29:12;101620.81;;;6.57;100.00
23733;BME280;12047;53.450;-2.286;2022-12-18T03:34:19;101609.00;;;6.78;100.00
23733;BME280;12047;53.450;-2.286;2022-12-18T03:39:22;101592.00;;;6.39;100.00
23733;BME280;12047;53.450;-2.286;2022-12-18T03:50:13;101569.84;;;6.28;100.00
23733;BME280;12047;53.450;-2.286;2022-12-18T03:55:16;101565.41;;;6.58;100.00
23733;BME280;12047;53.450;-2.286;2022-12-18T04:00:19;101558.13;;;6.33;100.00
23733;BME280;12047;53.450;-2.286;2022-12-18T04:05:21;101550.56;;;6.86;100.00
23733;BME280;12047;53.450;-2.286;2022-12-18T04:10:23;101548.94;;;6.69;100.00
23733;BME280;12047;53.450;-2.286;2022-12-18T04:15:24;101546.84;;;6.45;100.00
23733;BME280;12047;53.450;-2.286;2022-12-18T04:20:24;101516.09;;;6.32;100.00
23733;BME280;12047;53.450;-2.286;2022-12-18T04:25:25;101508.78;;;6.37;100.00
23733;BME280;12047;53.450;-2.286;2022-12-18T04:30:25;101503.97;;;6.29;100.00
23733;BME280;12047;53.450;-2.286;2022-12-18T04:35:26;101484.16;;;6.52;100.00
23733;BME280;12047;53.450;-2.286;2022-12-18T04:40:27;101484.22;;;6.36;100.00
23733;BME280;12047;53.450;-2.286;2022-12-18T04:45:30;101475.88;;;6.58;100.00
23733;BME280;12047;53.450;-2.286;2022-12-18T04:50:31;101473.16;;;6.88;100.00
23733;BME280;12047;53.450;-2.286;2022-12-18T04:55:31;101453.28;;;6.68;100.00
23733;BME280;12047;53.450;-2.286;2022-12-18T05:00:32;101446.44;;;6.66;100.00
23733;BME280;12047;53.450;-2.286;2022-12-18T05:05:35;101435.63;;;6.42;100.00
23733;BME280;12047;53.450;-2.286;2022-12-18T05:10:35;101425.66;;;6.19;100.00
23733;BME280;12047;53.450;-2.286;2022-12-18T05:15:36;101427.75;;;6.42;100.00
23733;BME280;12047;53.450;-2.286;2022-12-18T05:20:37;101414.56;;;6.28;100.00
23733;BME280;12047;53.450;-2.286;2022-12-18T05:25:37;101420.78;;;6.55;100.00
23733;BME280;12047;53.450;-2.286;2022-12-18T05:30:38;101417.22;;;6.42;100.00
23733;BME280;12047;53.450;-2.286;2022-12-18T05:35:38;101433.84;;;6.57;100.00
23733;BME280;12047;53.450;-2.286;2022-12-18T05:40:41;101443.44;;;6.58;100.00
23733;BME280;12047;53.450;-2.286;2022-12-18T05:45:43;101440.59;;;6.46;100.00
23733;BME280;12047;53.450;-2.286;2022-12-18T05:50:45;101448.72;;;7.13;100.00
23733;BME280;12047;53.450;-2.286;2022-12-18T05:55:47;101437.13;;;6.89;100.00
23733;BME280;12047;53.450;-2.286;2022-12-18T06:00:48;101442.38;;;6.89;100.00
23733;BME280;12047;53.450;-2.286;2022-12-18T06:05:48;101415.69;;;7.61;100.00
23733;BME280;12047;53.450;-2.286;2022-12-18T06:10:50;101434.03;;;8.15;100.00
23733;BME280;12047;53.450;-2.286;2022-12-18T06:15:53;101416.25;;;8.17;100.00
23733;BME280;12047;53.450;-2.286;2022-12-18T06:20:58;101407.34;;;7.01;100.00
23733;BME280;12047;53.450;-2.286;2022-12-18T06:26:04;101400.81;;;6.51;100.00
23733;BME280;12047;53.450;-2.286;2022-12-18T06:31:06;101398.00;;;7.36;100.00
23733;BME280;12047;53.450;-2.286;2022-12-18T06:36:11;101405.06;;;7.09;100.00
23733;BME280;12047;53.450;-2.286;2022-12-18T06:41:14;101412.59;;;7.55;100.00
23733;BME280;12047;53.450;-2.286;2022-12-18T06:46:15;101416.91;;;7.16;100.00
23733;BME280;12047;53.450;-2.286;2022-12-18T06:51:21;101392.34;;;7.55;100.00
23733;BME280;12047;53.450;-2.286;2022-12-18T06:56:21;101390.81;;;7.65;100.00
23733;BME280;12047;53.450;-2.286;2022-12-18T07:01:22;101383.56;;;7.42;100.00
23733;BME280;12047;53.450;-2.286;2022-12-18T07:06:25;101373.09;;;8.05;100.00
23733;BME280;12047;53.450;-2.286;2022-12-18T07:11:25;101369.13;;;7.47;100.00
23733;BME280;12047;53.450;-2.286;2022-12-18T07:16:26;101360.09;;;8.02;100.00
23733;BME280;12047;53.450;-2.286;2022-12-18T07:21:28;101354.19;;;7.99;100.00
23733;BME280;12047;53.450;-2.286;2022-12-18T07:26:29;101351.88;;;7.94;100.00
23733;BME280;12047;53.450;-2.286;2022-12-18T07:31:29;101346.88;;;7.51;100.00
23733;BME280;12047;53.450;-2.286;2022-12-18T07:36:30;101346.50;;;8.34;100.00
23733;BME280;12047;53.450;-2.286;2022-12-18T07:41:31;101346.88;;;8.90;100.00
23733;BME280;12047;53.450;-2.286;2022-12-18T07:46:31;101344.44;;;7.48;100.00
23733;BME280;12047;53.450;-2.286;2022-12-18T07:51:32;101353.22;;;7.62;100.00
23733;BME280;12047;53.450;-2.286;2022-12-18T07:56:32;101357.84;;;8.60;100.00
23733;BME280;12047;53.450;-2.286;2022-12-18T08:01:33;101345.41;;;8.24;100.00
23733;BME280;12047;53.450;-2.286;2022-12-18T08:06:34;101335.41;;;7.78;100.00
23733;BME280;12047;53.450;-2.286;2022-12-18T08:11:35;101341.81;;;8.25;100.00
23733;BME280;12047;53.450;-2.286;2022-12-18T08:16:35;101356.19;;;7.95;100.00
23733;BME280;12047;53.450;-2.286;2022-12-18T08:21:36;101348.16;;;7.97;100.00
23733;BME280;12047;53.450;-2.286;2022-12-18T08:26:37;101340.00;;;7.36;100.00
23733;BME280;12047;53.450;-2.286;2022-12-18T08:31:38;101347.31;;;7.71;100.00
23733;BME280;12047;53.450;-2.286;2022-12-18T08:36:38;101333.81;;;8.01;100.00
23733;BME280;12047;53.450;-2.286;2022-12-18T08:41:39;101319.25;;;7.70;100.00
23733;BME280;12047;53.450;-2.286;2022-12-18T08:46:42;101320.75;;;7.87;100.00
23733;BME280;12047;53.450;-2.286;2022-12-18T08:51:43;101293.97;;;7.15;100.00
23733;BME280;12047;53.450;-2.286;2022-12-18T08:56:44;101278.22;;;7.40;100.00
23733;BME280;12047;53.450;-2.286;2022-12-18T09:01:45;101259.50;;;7.43;100.00
23733;BME280;12047;53.450;-2.286;2022-12-18T09:06:46;101256.78;;;7.32;100.00
23733;BME280;12047;53.450;-2.286;2022-12-18T09:11:46;101251.81;;;7.78;100.00
23733;BME280;12047;53.450;-2.286;2022-12-18T09:16:47;101229.78;;;7.29;100.00
23733;BME280;12047;53.450;-2.286;2022-12-18T09:21:48;101235.38;;;7.49;100.00
23733;BME280;12047;53.450;-2.286;2022-12-18T09:26:48;101211.31;;;7.54;100.00
23733;BME280;12047;53.450;-2.286;2022-12-18T09:31:49;101173.59;;;7.41;100.00
23733;BME280;12047;53.450;-2.286;2022-12-18T09:36:50;101171.97;;;7.51;100.00
23733;BME280;12047;53.450;-2.286;2022-12-18T09:41:56;101160.09;;;7.33;100.00
23733;BME280;12047;53.450;-2.286;2022-12-18T09:57:23;101133.94;;;7.30;100.00
23733;BME280;12047;53.450;-2.286;2022-12-18T10:02:26;101136.13;;;7.61;100.00
23733;BME280;12047;53.450;-2.286;2022-12-18T10:28:24;101094.94;;;8.43;100.00
23733;BME280;12047;53.450;-2.286;2022-12-18T10:33:30;101075.19;;;8.01;100.00
23733;BME280;12047;53.450;-2.286;2022-12-18T10:38:32;101069.03;;;8.13;100.00
23733;BME280;12047;53.450;-2.286;2022-12-18T10:43:38;101069.88;;;7.90;100.00
23733;BME280;12047;53.450;-2.286;2022-12-18T10:48:47;101064.00;;;7.73;100.00
23733;BME280;12047;53.450;-2.286;2022-12-18T10:54:02;101047.97;;;8.00;100.00
23733;BME280;12047;53.450;-2.286;2022-12-18T10:59:25;101031.22;;;8.47;100.00
23733;BME280;12047;53.450;-2.286;2022-12-18T11:04:31;101021.78;;;7.97;100.00
23733;BME280;12047;53.450;-2.286;2022-12-18T11:09:37;100998.72;;;8.69;100.00
23733;BME280;12047;53.450;-2.286;2022-12-18T11:19:42;100982.88;;;8.58;100.00
23733;BME280;12047;53.450;-2.286;2022-12-18T11:24:42;100959.59;;;8.63;100.00
23733;BME280;12047;53.450;-2.286;2022-12-18T11:29:43;100955.16;;;8.86;100.00
23733;BME280;12047;53.450;-2.286;2022-12-18T11:34:49;100957.56;;;8.09;100.00
23733;BME280;12047;53.450;-2.286;2022-12-18T11:39:56;100947.22;;;8.64;100.00
23733;BME280;12047;53.450;-2.286;2022-12-18T11:45:03;100918.41;;;8.38;100.00
23733;BME280;12047;53.450;-2.286;2022-12-18T12:01:16;100879.13;;;8.90;100.00
23733;BME280;12047;53.450;-2.286;2022-12-18T12:06:46;100857.63;;;9.47;100.00
23733;BME280;12047;53.450;-2.286;2022-12-18T12:17:45;100827.28;;;8.44;100.00
23733;BME280;12047;53.450;-2.286;2022-12-18T12:33:40;100784.63;;;9.35;100.00
23733;BME280;12047;53.450;-2.286;2022-12-18T12:38:50;100777.53;;;9.56;100.00
23733;BME280;12047;53.450;-2.286;2022-12-18T12:43:52;100772.16;;;8.94;100.00
23733;BME280;12047;53.450;-2.286;2022-12-18T12:48:57;100774.03;;;9.76;100.00
23733;BME280;12047;53.450;-2.286;2022-12-18T12:54:01;100748.16;;;9.17;100.00
23733;BME280;12047;53.450;-2.286;2022-12-18T12:59:23;100742.91;;;9.38;100.00
23733;BME280;12047;53.450;-2.286;2022-12-18T13:05:12;100720.16;;;9.57;100.00
23733;BME280;12047;53.450;-2.286;2022-12-18T13:15:27;100724.88;;;10.14;100.00
23733;BME280;12047;53.450;-2.286;2022-12-18T13:20:36;100707.88;;;9.25;100.00
23733;BME280;12047;53.450;-2.286;2022-12-18T13:25:38;100696.53;;;9.34;100.00
23733;BME280;12047;53.450;-2.286;2022-12-18T13:30:41;100672.72;;;8.93;100.00
23733;BME280;12047;53.450;-2.286;2022-12-18T13:40:54;100643.13;;;9.80;100.00
23733;BME280;12047;53.450;-2.286;2022-12-18T13:51:20;100612.94;;;9.52;100.00
23733;BME280;12047;53.450;-2.286;2022-12-18T13:56:25;100594.94;;;9.06;100.00
23733;BME280;12047;53.450;-2.286;2022-12-18T14:01:26;100585.28;;;9.26;100.00
23733;BME280;12047;53.450;-2.286;2022-12-18T14:06:27;100591.91;;;9.11;100.00
23733;BME280;12047;53.450;-2.286;2022-12-18T14:11:32;100585.66;;;9.21;100.00
23733;BME280;12047;53.450;-2.286;2022-12-18T14:16:36;100569.59;;;9.04;100.00
23733;BME280;12047;53.450;-2.286;2022-12-18T14:21:46;100554.38;;;8.96;100.00
23733;BME280;12047;53.450;-2.286;2022-12-18T14:26:54;100539.41;;;8.76;100.00
23733;BME280;12047;53.450;-2.286;2022-12-18T14:32:09;100522.00;;;8.73;100.00
23733;BME280;12047;53.450;-2.286;2022-12-18T14:37:49;100499.47;;;9.00;100.00
23733;BME280;12047;53.450;-2.286;2022-12-18T14:43:12;100492.94;;;8.73;100.00
23733;BME280;12047;53.450;-2.286;2022-12-18T14:48:46;100484.38;;;9.21;100.00
23733;BME280;12047;53.450;-2.286;2022-12-18T14:53:56;100477.06;;;9.34;100.00
23733;BME280;12047;53.450;-2.286;2022-12-18T14:59:11;100470.84;;;9.64;100.00
23733;BME280;12047;53.450;-2.286;2022-12-18T15:04:40;100450.19;;;18.25;100.00
23733;BME280;12047;53.450;-2.286;2022-12-18T15:09:44;100458.44;;;10.32;100.00
23733;BME280;12047;53.450;-2.286;2022-12-18T15:14:47;100459.28;;;10.23;100.00
23733;BME280;12047;53.450;-2.286;2022-12-18T15:19:50;100453.59;;;10.65;100.00
23733;BME280;12047;53.450;-2.286;2022-12-18T15:24:53;100439.34;;;9.90;100.00
23733;BME280;12047;53.450;-2.286;2022-12-18T15:35:23;100437.50;;;9.23;100.00
23733;BME280;12047;53.450;-2.286;2022-12-18T15:40:24;100428.38;;;9.75;100.00
23733;BME280;12047;53.450;-2.286;2022-12-18T15:45:25;100408.84;;;9.96;100.00
23733;BME280;12047;53.450;-2.286;2022-12-18T15:50:25;100401.16;;;10.96;100.00
23733;BME280;12047;53.450;-2.286;2022-12-18T15:55:26;100382.75;;;10.94;100.00
23733;BME280;12047;53.450;-2.286;2022-12-18T16:00:46;100376.47;;;10.68;100.00
23733;BME280;12047;53.450;-2.286;2022-12-18T16:05:46;100376.94;;;10.63;100.00
23733;BME280;12047;53.450;-2.286;2022-12-18T16:10:47;100359.13;;;11.01;100.00
23733;BME280;12047;53.450;-2.286;2022-12-18T16:15:48;100344.41;;;11.95;100.00
23733;BME280;12047;53.450;-2.286;2022-12-18T16:20:49;100343.59;;;10.88;100.00
23733;BME280;12047;53.450;-2.286;2022-12-18T16:25:49;100326.63;;;10.99;100.00
23733;BME280;12047;53.450;-2.286;2022-12-18T16:30:55;100316.72;;;11.01;100.00
23733;BME280;12047;53.450;-2.286;2022-12-18T16:41:43;100296.47;;;10.82;100.00
23733;BME280;12047;53.450;-2.286;2022-12-18T16:46:44;100298.00;;;10.84;100.00
23733;BME280;12047;53.450;-2.286;2022-12-18T16:52:11;100300.94;;;10.81;100.00
23733;BME280;12047;53.450;-2.286;2022-12-18T16:57:15;100295.06;;;10.87;100.00
23733;BME280;12047;53.450;-2.286;2022-12-18T17:02:21;100278.00;;;10.45;100.00
23733;BME280;12047;53.450;-2.286;2022-12-18T17:07:25;100281.88;;;10.50;100.00
23733;BME280;12047;53.450;-2.286;2022-12-18T17:12:27;100264.13;;;10.78;100.00
23733;BME280;12047;53.450;-2.286;2022-12-18T17:17:28;100262.88;;;10.82;100.00
23733;BME280;12047;53.450;-2.286;2022-12-18T17:22:28;100239.44;;;10.60;100.00
23733;BME280;12047;53.450;-2.286;2022-12-18T17:27:29;100235.06;;;10.86;100.00
23733;BME280;12047;53.450;-2.286;2022-12-18T17:32:30;100233.91;;;10.71;100.00
23733;BME280;12047;53.450;-2.286;2022-12-18T17:37:30;100248.03;;;10.44;100.00
23733;BME280;12047;53.450;-2.286;2022-12-18T17:42:31;100233.97;;;11.15;100.00
23733;BME280;12047;53.450;-2.286;2022-12-18T17:47:32;100227.16;;;11.30;100.00
23733;BME280;12047;53.450;-2.286;2022-12-18T17:52:32;100213.31;;;11.01;100.00
23733;BME280;12047;53.450;-2.286;2022-12-18T17:57:34;100217.78;;;11.00;100.00
23733;BME280;12047;53.450;-2.286;2022-12-18T18:02:42;100203.59;;;11.53;100.00
23733;BME280;12047;53.450;-2.286;2022-12-18T18:07:42;100203.59;;;11.53;100.00
23733;BME280;12047;53.450;-2.286;2022-12-18T18:12:43;100196.50;;;11.79;100.00
23733;BME280;12047;53.450;-2.286;2022-12-18T18:18:03;100179.19;;;11.75;100.00
23733;BME280;12047;53.450;-2.286;2022-12-18T18:23:04;100181.78;;;11.93;100.00
23733;BME280;12047;53.450;-2.286;2022-12-18T18:28:05;100188.38;;;11.55;100.00
23733;BME280;12047;53.450;-2.286;2022-12-18T18:33:24;100177.59;;;11.82;100.00
23733;BME280;12047;53.450;-2.286;2022-12-18T18:38:25;100171.19;;;12.01;100.00
23733;BME280;12047;53.450;-2.286;2022-12-18T18:43:26;100153.22;;;11.87;100.00
23733;BME280;12047;53.450;-2.286;2022-12-18T18:48:31;100132.41;;;12.08;100.00
23733;BME280;12047;53.450;-2.286;2022-12-18T18:53:41;100122.00;;;11.81;100.00
23733;BME280;12047;53.450;-2.286;2022-12-18T18:58:43;100126.81;;;11.77;100.00
23733;BME280;12047;53.450;-2.286;2022-12-18T19:03:45;100105.53;;;12.11;100.00
23733;BME280;12047;53.450;-2.286;2022-12-18T19:08:46;100111.63;;;12.04;100.00
23733;BME280;12047;53.450;-2.286;2022-12-18T19:14:08;100102.22;;;12.90;100.00
23733;BME280;12047;53.450;-2.286;2022-12-18T19:19:09;100093.44;;;12.49;100.00
23733;BME280;12047;53.450;-2.286;2022-12-18T19:24:10;100070.53;;;12.48;100.00
23733;BME280;12047;53.450;-2.286;2022-12-18T19:29:34;100071.69;;;12.30;100.00
23733;BME280;12047;53.450;-2.286;2022-12-18T19:34:35;100064.69;;;12.45;100.00
23733;BME280;12047;53.450;-2.286;2022-12-18T19:39:41;100048.94;;;12.51;100.00
23733;BME280;12047;53.450;-2.286;2022-12-18T19:44:44;100041.44;;;12.63;100.00
23733;BME280;12047;53.450;-2.286;2022-12-18T19:49:51;100041.94;;;12.75;100.00
23733;BME280;12047;53.450;-2.286;2022-12-18T19:54:51;100017.00;;;12.84;100.00
23733;BME280;12047;53.450;-2.286;2022-12-18T19:59:52;100022.66;;;12.81;100.00
23733;BME280;12047;53.450;-2.286;2022-12-18T20:05:26;100024.66;;;12.79;100.00
23733;BME280;12047;53.450;-2.286;2022-12-18T20:10:27;100029.50;;;12.43;100.00
23733;BME280;12047;53.450;-2.286;2022-12-18T20:15:31;100028.09;;;13.04;100.00
23733;BME280;12047;53.450;-2.286;2022-12-18T20:26:38;100000.25;;;14.15;100.00
23733;BME280;12047;53.450;-2.286;2022-12-18T20:31:39;100002.59;;;13.34;100.00
23733;BME280;12047;53.450;-2.286;2022-12-18T20:36:40;99985.09;;;13.39;100.00
23733;BME280;12047;53.450;-2.286;2022-12-18T20:41:44;99961.72;;;13.57;100.00
23733;BME280;12047;53.450;-2.286;2022-12-18T20:46:55;99939.78;;;13.55;100.00
23733;BME280;12047;53.450;-2.286;2022-12-18T20:52:00;99946.34;;;13.68;100.00
23733;BME280;12047;53.450;-2.286;2022-12-18T20:57:02;99938.03;;;13.62;100.00
23733;BME280;12047;53.450;-2.286;2022-12-18T21:02:06;99949.50;;;14.32;100.00
23733;BME280;12047;53.450;-2.286;2022-12-18T21:07:07;99944.94;;;13.57;100.00
23733;BME280;12047;53.450;-2.286;2022-12-18T21:12:11;99913.50;;;13.75;100.00
23733;BME280;12047;53.450;-2.286;2022-12-18T21:17:33;99898.59;;;13.89;100.00
23733;BME280;12047;53.450;-2.286;2022-12-18T21:22:34;99901.38;;;13.95;100.00
23733;BME280;12047;53.450;-2.286;2022-12-18T21:27:36;99906.69;;;13.95;100.00
23733;BME280;12047;53.450;-2.286;2022-12-18T21:32:37;99897.31;;;14.37;100.00
23733;BME280;12047;53.450;-2.286;2022-12-18T21:37:37;99898.66;;;14.18;100.00
23733;BME280;12047;53.450;-2.286;2022-12-18T21:42:38;99878.59;;;13.93;100.00
23733;BME280;12047;53.450;-2.286;2022-12-18T21:47:58;99865.06;;;13.80;100.00
23733;BME280;12047;53.450;-2.286;2022-12-18T21:52:58;99846.25;;;14.34;100.00
23733;BME280;12047;53.450;-2.286;2022-12-18T21:57:59;99844.00;;;14.37;100.00
23733;BME280;12047;53.450;-2.286;2022-12-18T22:03:01;99836.75;;;14.16;100.00
23733;BME280;12047;53.450;-2.286;2022-12-18T22:08:01;99835.69;;;14.55;100.00
23733;BME280;12047;53.450;-2.286;2022-12-18T22:13:03;99857.34;;;14.37;100.00
23733;BME280;12047;53.450;-2.286;2022-12-18T22:18:04;99845.75;;;14.15;100.00
23733;BME280;12047;53.450;-2.286;2022-12-18T22:23:05;99825.69;;;14.57;100.00
23733;BME280;12047;53.450;-2.286;2022-12-18T22:28:05;99822.81;;;14.44;100.00
23733;BME280;12047;53.450;-2.286;2022-12-18T22:33:24;99837.00;;;14.95;100.00
23733;BME280;12047;53.450;-2.286;2022-12-18T22:38:24;99827.03;;;14.82;100.00
23733;BME280;12047;53.450;-2.286;2022-12-18T22:43:25;99834.97;;;14.97;100.00
23733;BME280;12047;53.450;-2.286;2022-12-18T22:48:26;99824.78;;;14.86;100.00
23733;BME280;12047;53.450;-2.286;2022-12-18T22:53:26;99803.50;;;14.71;100.00
23733;BME280;12047;53.450;-2.286;2022-12-18T22:58:27;99797.34;;;15.28;100.00
23733;BME280;12047;53.450;-2.286;2022-12-18T23:03:30;99801.03;;;15.06;100.00
23733;BME280;12047;53.450;-2.286;2022-12-18T23:08:32;99780.63;;;15.19;100.00
23733;BME280;12047;53.450;-2.286;2022-12-18T23:13:33;99780.13;;;15.73;100.00
23733;BME280;12047;53.450;-2.286;2022-12-18T23:18:35;99771.13;;;15.31;100.00
23733;BME280;12047;53.450;-2.286;2022-12-18T23:23:36;99759.41;;;15.54;100.00
23733;BME280;12047;53.450;-2.286;2022-12-18T23:28:38;99751.72;;;15.23;100.00
23733;BME280;12047;53.450;-2.286;2022-12-18T23:33:41;99766.91;;;15.22;100.00
23733;BME280;12047;53.450;-2.286;2022-12-18T23:38:47;99763.03;;;15.04;100.00
23733;BME280;12047;53.450;-2.286;2022-12-18T23:43:49;99770.22;;;15.24;100.00
23733;BME280;12047;53.450;-2.286;2022-12-18T23:48:51;99762.50;;;15.36;100.00
23733;BME280;12047;53.450;-2.286;2022-12-18T23:53:53;99744.19;;;15.05;100.00
23733;BME280;12047;53.450;-2.286;2022-12-18T23:58:54;99726.41;;;15.40;100.00
